Time;durP1;ratioP1;P1;durP2;ratioP2;P2;SDS_P1;SDS_P2;PMS_P1;PMS_P2;Temp;Humidity;BMP_temperature;BMP_pressure;BME280_temperature;BME280_humidity;BME280_pressure;Samples;Min_cycle;Max_cycle;Signal;HPM_P1;HPM_P2
2021/06/27 00:01:33;;;;;;;4.80;4.40;;;24.50;96.10;;;;;;5109108;28;20446;-70
2021/06/27 00:04:00;;;;;;;4.70;4.40;;;24.50;96.20;;;;;;5099825;28;20466;-70
2021/06/27 00:06:27;;;;;;;4.53;4.23;;;24.50;96.20;;;;;;5096500;28;20493;-69
2021/06/27 00:08:54;;;;;;;4.60;4.20;;;24.50;96.30;;;;;;5091760;28;20745;-70
2021/06/27 00:11:24;;;;;;;5.55;5.05;;;24.40;96.60;;;;;;5092373;28;20451;-69
2021/06/27 00:13:51;;;;;;;4.63;4.33;;;24.60;99.80;;;;;;5093178;28;20243;-70
2021/06/27 00:16:19;;;;;;;5.20;4.80;;;24.60;99.90;;;;;;5094572;28;20462;-69
2021/06/27 00:18:48;;;;;;;4.93;4.53;;;24.60;99.60;;;;;;5101926;28;20462;-69
2021/06/27 00:21:15;;;;;;;4.53;4.23;;;24.60;99.60;;;;;;5104720;28;20458;-69
2021/06/27 00:23:44;;;;;;;3.87;3.57;;;24.50;99.30;;;;;;5093483;28;20456;-69
2021/06/27 00:26:13;;;;;;;4.57;4.17;;;24.30;98.20;;;;;;5112971;28;20446;-69
2021/06/27 00:28:41;;;;;;;5.50;5.00;;;24.40;98.40;;;;;;5106021;28;20466;-69
2021/06/27 00:31:07;;;;;;;5.17;4.77;;;24.40;98.40;;;;;;5094406;28;20440;-69
2021/06/27 00:33:34;;;;;;;4.47;4.18;;;24.50;99.90;;;;;;5111446;28;20485;-69
2021/06/27 00:36:03;;;;;;;4.23;3.93;;;24.30;98.30;;;;;;5107200;28;20385;-69
2021/06/27 00:38:29;;;;;;;4.33;3.93;;;24.20;96.90;;;;;;5112097;28;20441;-69
2021/06/27 00:40:56;;;;;;;4.63;4.33;;;24.30;98.40;;;;;;5099746;28;20811;-68
2021/06/27 00:43:23;;;;;;;4.70;4.33;;;24.30;98.50;;;;;;5112807;28;20446;-69
2021/06/27 00:45:50;;;;;;;4.80;4.40;;;24.20;98.00;;;;;;5110743;28;20487;-69
2021/06/27 00:48:17;;;;;;;4.57;4.23;;;24.20;97.10;;;;;;5100587;28;20462;-69
2021/06/27 00:50:46;;;;;;;4.37;4.07;;;24.10;97.10;;;;;;5092233;28;20439;-69
2021/06/27 00:53:14;;;;;;;5.47;4.97;;;24.30;98.60;;;;;;5096469;28;20483;-70
2021/06/27 00:55:42;;;;;;;3.87;3.57;;;24.30;97.50;;;;;;5092627;28;20443;-69
2021/06/27 00:58:09;;;;;;;5.50;4.83;;;24.10;98.90;;;;;;5092302;28;20471;-69
2021/06/27 01:00:39;;;;;;;5.03;4.63;;;24.10;97.20;;;;;;5092230;28;20938;-69
2021/06/27 01:03:06;;;;;;;4.90;4.50;;;24.10;97.30;;;;;;5104681;28;20440;-69
2021/06/27 01:05:35;;;;;;;4.60;4.20;;;24.10;97.40;;;;;;5098376;28;20452;-69
2021/06/27 01:08:02;;;;;;;4.47;4.17;;;24.00;97.40;;;;;;5091394;28;20447;-69
2021/06/27 01:10:31;;;;;;;4.77;4.37;;;24.00;97.50;;;;;;5095207;28;20474;-70
2021/06/27 01:12:58;;;;;;;3.60;3.30;;;24.00;97.50;;;;;;5091356;28;20893;-69
2021/06/27 01:15:25;;;;;;;4.93;4.53;;;24.00;97.60;;;;;;5103216;28;20454;-70
2021/06/27 01:17:54;;;;;;;4.50;4.10;;;23.90;97.60;;;;;;5091004;28;20459;-69
2021/06/27 01:20:23;;;;;;;5.07;4.57;;;23.90;97.70;;;;;;5095372;28;20469;-70
2021/06/27 01:22:52;;;;;;;4.13;3.83;;;23.90;97.80;;;;;;5090013;28;20463;-69
2021/06/27 01:25:21;;;;;;;5.50;5.00;;;23.90;97.80;;;;;;5101985;28;20957;-69
2021/06/27 01:27:48;;;;;;;4.17;3.83;;;23.90;97.90;;;;;;5104855;28;20483;-70
2021/06/27 01:30:15;;;;;;;5.13;4.73;;;23.90;98.00;;;;;;5090967;28;20463;-69
2021/06/27 01:32:46;;;;;;;4.40;4.10;;;23.80;98.00;;;;;;5099709;28;20927;-69
2021/06/27 01:35:15;;;;;;;4.00;3.70;;;23.80;98.00;;;;;;5100848;28;20204;-69
2021/06/27 01:37:42;;;;;;;4.83;4.43;;;23.80;98.10;;;;;;5096660;28;20454;-69
2021/06/27 01:40:12;;;;;;;4.07;3.77;;;23.80;98.20;;;;;;5090915;28;20466;-69
2021/06/27 01:42:39;;;;;;;4.63;4.33;;;23.80;98.20;;;;;;5091870;28;20436;-69
2021/06/27 01:45:11;;;;;;;4.70;4.30;;;23.80;98.30;;;;;;5099525;28;20446;-69
2021/06/27 01:47:38;;;;;;;4.60;4.20;;;23.70;98.30;;;;;;5095177;28;20471;-69
2021/06/27 01:50:06;;;;;;;4.13;3.77;;;23.70;98.30;;;;;;5095966;28;20946;-69
2021/06/27 01:52:33;;;;;;;4.53;4.20;;;23.70;98.40;;;;;;5094644;28;20482;-69
2021/06/27 01:55:00;;;;;;;5.10;4.70;;;23.70;98.50;;;;;;5094492;28;20482;-69
2021/06/27 01:57:28;;;;;;;4.57;4.17;;;23.70;98.50;;;;;;5095394;28;20228;-69
2021/06/27 01:59:55;;;;;;;4.10;3.70;;;23.60;98.60;;;;;;5102720;28;20435;-69
2021/06/27 02:02:22;;;;;;;4.87;4.47;;;23.60;98.70;;;;;;5115187;28;20449;-69
2021/06/27 02:04:48;;;;;;;3.90;3.60;;;23.60;98.80;;;;;;5095103;28;20451;-69
2021/06/27 02:07:15;;;;;;;4.50;4.20;;;23.60;98.90;;;;;;5107299;28;20458;-69
2021/06/27 02:09:42;;;;;;;5.00;4.60;;;24.30;99.30;;;;;;5115213;28;20212;-69
2021/06/27 02:12:10;;;;;;;4.95;4.53;;;23.50;99.00;;;;;;5115043;28;20449;-69
2021/06/27 02:14:39;;;;;;;4.60;4.20;;;23.50;99.40;;;;;;5113273;28;20277;-69
2021/06/27 02:17:06;;;;;;;5.38;4.88;;;23.50;99.10;;;;;;5099160;28;20455;-69
2021/06/27 02:19:33;;;;;;;4.83;4.43;;;23.50;99.20;;;;;;5113914;28;20188;-69
2021/06/27 02:21:59;;;;;;;4.97;4.57;;;23.40;99.20;;;;;;5105503;28;20926;-69
2021/06/27 02:24:26;;;;;;;4.82;4.43;;;23.40;99.30;;;;;;5094468;28;20626;-69
2021/06/27 02:26:53;;;;;;;4.73;3.83;;;23.40;99.40;;;;;;5105702;28;20657;-69
2021/06/27 02:29:20;;;;;;;5.37;4.87;;;23.40;99.50;;;;;;5103874;28;20435;-69
2021/06/27 02:31:50;;;;;;;4.70;4.30;;;23.40;99.50;;;;;;5114919;28;20454;-69
2021/06/27 02:34:17;;;;;;;4.25;3.95;;;23.30;99.60;;;;;;5104270;28;20317;-69
2021/06/27 02:36:43;;;;;;;4.90;4.50;;;23.30;99.60;;;;;;5102426;28;20224;-69
2021/06/27 02:39:10;;;;;;;4.95;4.55;;;23.30;99.70;;;;;;5099944;28;20459;-68
2021/06/27 02:41:37;;;;;;;4.68;4.38;;;23.30;99.80;;;;;;5094207;28;20201;-69
2021/06/27 02:44:05;;;;;;;4.82;4.43;;;24.10;99.90;;;;;;5095159;28;20641;-69
2021/06/27 02:46:32;;;;;;;5.47;4.97;;;23.30;99.80;;;;;;5094015;28;20194;-69
2021/06/27 02:49:00;;;;;;;4.70;4.30;;;23.30;99.90;;;;;;5101852;28;20452;-69
2021/06/27 02:51:27;;;;;;;5.80;5.37;;;23.20;99.80;;;;;;5113318;28;20467;-69
2021/06/27 02:53:53;;;;;;;4.97;4.57;;;23.20;99.90;;;;;;5113247;28;20504;-69
2021/06/27 02:56:20;;;;;;;5.57;3.93;;;23.20;99.90;;;;;;5098150;28;20193;-70
2021/06/27 02:58:48;;;;;;;4.88;4.45;;;23.20;99.90;;;;;;5094637;28;20489;-69
2021/06/27 03:01:16;;;;;;;4.03;3.60;;;23.20;99.90;;;;;;5093470;28;20208;-69
2021/06/27 03:03:45;;;;;;;5.23;4.73;;;23.20;99.90;;;;;;5093208;28;20194;-70
2021/06/27 03:06:14;;;;;;;4.33;4.03;;;23.10;99.90;;;;;;5109910;28;20439;-69
2021/06/27 03:08:41;;;;;;;5.43;5.00;;;23.10;99.90;;;;;;5101377;28;20808;-69
2021/06/27 03:11:08;;;;;;;5.10;4.33;;;23.10;99.90;;;;;;5093510;28;20197;-69
2021/06/27 03:13:36;;;;;;;4.30;4.00;;;23.10;99.90;;;;;;5097806;28;20467;-69
2021/06/27 03:16:04;;;;;;;4.43;4.13;;;23.10;99.90;;;;;;5108995;28;20204;-69
2021/06/27 03:18:30;;;;;;;5.10;4.70;;;23.00;99.90;;;;;;5103177;28;20203;-69
2021/06/27 03:20:57;;;;;;;4.60;4.20;;;23.00;99.90;;;;;;5107930;28;20439;-69
2021/06/27 03:23:26;;;;;;;4.40;4.10;;;23.00;99.90;;;;;;5109201;28;20513;-69
2021/06/27 03:25:53;;;;;;;4.25;3.95;;;23.00;99.90;;;;;;5092821;28;20193;-69
2021/06/27 03:28:20;;;;;;;5.18;4.68;;;23.00;99.90;;;;;;5100996;28;20198;-69
2021/06/27 03:30:47;;;;;;;5.57;5.07;;;22.90;99.90;;;;;;5107912;28;20249;-69
2021/06/27 03:33:14;;;;;;;4.72;4.20;;;22.90;99.90;;;;;;5110029;28;20200;-69
2021/06/27 03:35:41;;;;;;;4.07;3.67;;;22.90;99.90;;;;;;5109239;28;20217;-69
2021/06/27 03:38:13;;;;;;;4.03;3.72;;;22.90;99.90;;;;;;5113277;28;20446;-69
2021/06/27 03:40:42;;;;;;;4.35;4.05;;;22.90;99.90;;;;;;5104566;28;20197;-69
2021/06/27 03:43:09;;;;;;;4.78;4.38;;;22.80;99.90;;;;;;5092499;28;20193;-69
2021/06/27 03:45:37;;;;;;;5.17;4.67;;;22.90;99.90;;;;;;5103562;28;20600;-69
2021/06/27 03:48:04;;;;;;;5.05;4.65;;;22.90;99.90;;;;;;5096360;28;20466;-69
2021/06/27 03:50:31;;;;;;;4.90;4.50;;;22.90;99.90;;;;;;5092607;28;20840;-70
2021/06/27 03:52:57;;;;;;;4.72;4.32;;;22.80;99.90;;;;;;5087075;28;20217;-69
2021/06/27 03:55:24;;;;;;;5.00;4.60;;;22.80;99.90;;;;;;5099726;28;20911;-69
2021/06/27 03:57:52;;;;;;;4.88;4.55;;;22.80;99.90;;;;;;5110312;28;20223;-69
2021/06/27 04:00:20;;;;;;;4.85;4.45;;;22.80;99.90;;;;;;5113020;28;20207;-69
2021/06/27 04:02:47;;;;;;;4.70;4.30;;;22.80;99.90;;;;;;5109006;28;20519;-69
2021/06/27 04:05:15;;;;;;;5.90;5.30;;;22.80;99.90;;;;;;5103722;28;20193;-68
2021/06/27 04:07:41;;;;;;;5.57;4.75;;;22.70;99.90;;;;;;5092014;28;20202;-69
2021/06/27 04:10:10;;;;;;;4.32;3.92;;;22.80;99.90;;;;;;5092061;28;20201;-69
2021/06/27 04:12:37;;;;;;;4.40;3.72;;;22.70;99.90;;;;;;5104132;28;20189;-69
2021/06/27 04:15:07;;;;;;;5.45;5.03;;;22.70;99.90;;;;;;5106307;28;20213;-69
2021/06/27 04:17:34;;;;;;;4.63;4.25;;;22.70;99.90;;;;;;5092097;28;20204;-69
2021/06/27 04:20:01;;;;;;;4.30;3.90;;;22.70;99.90;;;;;;5107233;28;20199;-69
2021/06/27 04:22:27;;;;;;;6.25;4.18;;;22.70;99.90;;;;;;5096468;28;20205;-69
2021/06/27 04:24:54;;;;;;;4.55;4.15;;;22.70;99.90;;;;;;5095861;28;20196;-69
2021/06/27 04:27:21;;;;;;;5.75;4.13;;;22.60;99.90;;;;;;5104604;28;20664;-69
2021/06/27 04:29:48;;;;;;;4.65;4.25;;;22.70;99.90;;;;;;5091650;28;20197;-69
2021/06/27 04:32:16;;;;;;;4.82;4.32;;;22.60;99.90;;;;;;5092025;28;20205;-69
2021/06/27 04:34:42;;;;;;;4.28;3.60;;;22.60;99.90;;;;;;5093365;28;20229;-69
2021/06/27 04:37:09;;;;;;;4.85;4.45;;;22.60;99.90;;;;;;5091400;28;20638;-70
2021/06/27 04:39:36;;;;;;;4.45;4.05;;;22.60;99.90;;;;;;5095153;28;20200;-69
2021/06/27 04:42:02;;;;;;;3.85;3.55;;;22.60;99.90;;;;;;5092477;28;20229;-70
2021/06/27 04:44:29;;;;;;;4.20;3.85;;;22.60;99.90;;;;;;5091492;28;20197;-69
2021/06/27 04:46:56;;;;;;;4.55;4.25;;;22.60;99.90;;;;;;5100685;28;20708;-70
2021/06/27 04:49:24;;;;;;;4.60;4.22;;;22.60;99.90;;;;;;5091790;28;20232;-70
2021/06/27 04:51:51;;;;;;;4.32;4.00;;;22.60;99.90;;;;;;5091313;28;20201;-70
2021/06/27 04:54:17;;;;;;;3.90;3.60;;;22.60;99.90;;;;;;5092326;28;20216;-70
2021/06/27 04:56:44;;;;;;;4.78;4.38;;;22.60;99.90;;;;;;5095824;28;20197;-70
2021/06/27 04:59:11;;;;;;;4.22;3.83;;;22.60;99.90;;;;;;5091332;28;20543;-70
2021/06/27 05:01:38;;;;;;;4.70;4.30;;;22.60;99.90;;;;;;5091462;28;20204;-69
2021/06/27 05:04:05;;;;;;;4.00;3.70;;;22.60;99.90;;;;;;5092752;28;20199;-69
2021/06/27 05:06:33;;;;;;;4.90;4.22;;;22.60;99.90;;;;;;5089483;28;20649;-69
2021/06/27 05:08:59;;;;;;;3.45;3.22;;;22.00;99.90;;;;;;5108467;28;20201;-69
2021/06/27 05:11:26;;;;;;;4.97;4.57;;;21.10;99.90;;;;;;5091354;28;20192;-70
2021/06/27 05:13:53;;;;;;;5.10;4.70;;;22.50;99.90;;;;;;5100135;28;20847;-69
2021/06/27 05:16:19;;;;;;;4.28;3.97;;;22.60;99.90;;;;;;5092266;28;20210;-70
2021/06/27 05:18:46;;;;;;;4.03;3.72;;;22.60;99.90;;;;;;5091341;28;20197;-69
2021/06/27 05:21:13;;;;;;;4.28;3.88;;;22.60;99.90;;;;;;5111329;28;20205;-69
2021/06/27 05:23:41;;;;;;;3.80;3.50;;;22.70;99.90;;;;;;5111976;28;20209;-70
2021/06/27 05:26:07;;;;;;;4.60;4.20;;;22.60;99.90;;;;;;5096243;28;20201;-70
2021/06/27 05:28:34;;;;;;;4.10;3.72;;;22.60;99.90;;;;;;5091345;28;20219;-70
2021/06/27 05:31:01;;;;;;;4.60;4.20;;;22.70;99.90;;;;;;5096490;28;20199;-70
2021/06/27 05:33:27;;;;;;;4.50;4.15;;;22.70;99.90;;;;;;5098260;28;20201;-69
2021/06/27 05:35:54;;;;;;;4.28;3.97;;;22.70;99.90;;;;;;5105854;28;20216;-70
2021/06/27 05:38:21;;;;;;;4.20;3.90;;;22.70;99.90;;;;;;5110226;28;20198;-70
2021/06/27 05:40:49;;;;;;;4.22;3.92;;;22.70;99.90;;;;;;5109920;28;20256;-70
2021/06/27 05:43:15;;;;;;;4.97;4.22;;;22.80;99.90;;;;;;5111069;28;20209;-69
2021/06/27 05:45:42;;;;;;;4.13;3.75;;;22.90;99.90;;;;;;5107127;28;20212;-69
2021/06/27 05:48:09;;;;;;;4.03;3.63;;;23.00;99.90;;;;;;5100339;28;20201;-70
2021/06/27 05:50:36;;;;;;;4.10;3.80;;;23.20;99.90;;;;;;5106679;28;20459;-70
2021/06/27 05:53:03;;;;;;;3.70;3.40;;;23.30;99.90;;;;;;5090279;28;20796;-69
2021/06/27 05:55:30;;;;;;;4.07;3.53;;;23.50;99.60;;;;;;5096704;28;20788;-70
2021/06/27 05:57:58;;;;;;;4.07;3.77;;;23.60;99.10;;;;;;5090469;28;20478;-70
2021/06/27 06:00:25;;;;;;;3.77;3.47;;;23.60;99.00;;;;;;5090781;28;20443;-70
2021/06/27 06:02:52;;;;;;;4.97;3.97;;;23.60;98.90;;;;;;5090913;28;20800;-69
2021/06/27 06:05:19;;;;;;;4.73;4.33;;;23.50;99.00;;;;;;5097693;28;20451;-69
2021/06/27 06:07:46;;;;;;;4.03;3.73;;;23.40;99.10;;;;;;5094254;28;20772;-68
2021/06/27 06:10:13;;;;;;;4.50;4.17;;;23.40;99.20;;;;;;5091388;28;20435;-67
2021/06/27 06:12:39;;;;;;;3.58;3.28;;;23.40;99.50;;;;;;5100592;28;20459;-69
2021/06/27 06:15:09;;;;;;;4.17;3.80;;;23.40;99.40;;;;;;5100827;28;20220;-69
2021/06/27 06:17:36;;;;;;;3.37;3.10;;;23.40;99.50;;;;;;5102286;28;20446;-68
2021/06/27 06:20:02;;;;;;;4.40;4.00;;;23.40;99.40;;;;;;5092516;28;20789;-69
2021/06/27 06:22:30;;;;;;;4.17;3.87;;;23.50;99.40;;;;;;5098223;28;20485;-68
2021/06/27 06:24:57;;;;;;;3.90;3.60;;;23.50;99.30;;;;;;5094913;28;20451;-69
2021/06/27 06:27:24;;;;;;;4.67;4.27;;;23.50;99.30;;;;;;5103551;28;20487;-69
2021/06/27 06:29:51;;;;;;;3.60;3.40;;;23.50;99.30;;;;;;5090854;28;20451;-69
2021/06/27 06:32:19;;;;;;;4.93;3.90;;;23.50;99.30;;;;;;5100644;28;20465;-69
2021/06/27 06:34:45;;;;;;;3.90;3.60;;;23.50;99.30;;;;;;5098786;28;20479;-69
2021/06/27 06:37:12;;;;;;;3.43;3.23;;;23.60;99.40;;;;;;5101922;28;20790;-69
2021/06/27 06:39:39;;;;;;;4.33;3.97;;;23.60;99.40;;;;;;5114007;28;20481;-68
2021/06/27 06:42:06;;;;;;;3.78;3.47;;;23.60;99.20;;;;;;5111832;28;20454;-69
2021/06/27 06:44:33;;;;;;;3.28;3.08;;;23.80;99.00;;;;;;5113650;28;20200;-69
2021/06/27 06:46:59;;;;;;;3.13;2.93;;;23.90;98.40;;;;;;5109050;28;20404;-69
2021/06/27 06:49:28;;;;;;;3.83;3.53;;;24.10;97.90;;;;;;5102927;28;20455;-68
2021/06/27 06:51:54;;;;;;;3.70;3.40;;;24.20;97.60;;;;;;5100544;28;20439;-68
2021/06/27 06:54:21;;;;;;;4.10;3.80;;;24.30;97.20;;;;;;5095628;28;20470;-71
2021/06/27 06:56:48;;;;;;;5.87;3.97;;;24.40;96.80;;;;;;5112901;28;20482;-71
2021/06/27 06:59:14;;;;;;;4.47;4.07;;;24.40;96.70;;;;;;5101873;28;20846;-71
2021/06/27 07:01:41;;;;;;;4.40;4.00;;;24.50;96.50;;;;;;5099047;28;20443;-70
2021/06/27 07:04:08;;;;;;;4.13;3.30;;;24.50;96.30;;;;;;5110336;28;20446;-71
2021/06/27 07:06:36;;;;;;;3.50;3.23;;;24.60;96.30;;;;;;5093308;28;21152;-72
2021/06/27 07:09:03;;;;;;;4.20;3.90;;;24.70;96.00;;;;;;5093537;28;20458;-69
2021/06/27 07:11:29;;;;;;;3.87;3.57;;;24.80;95.60;;;;;;5093093;28;20443;-70
2021/06/27 07:13:56;;;;;;;3.93;3.63;;;24.90;95.30;;;;;;5093133;28;20946;-71
2021/06/27 07:16:23;;;;;;;3.90;3.60;;;25.00;94.90;;;;;;5093242;28;20479;-70
2021/06/27 07:18:50;;;;;;;4.10;3.70;;;25.10;94.60;;;;;;5092518;28;20439;-70
2021/06/27 07:21:17;;;;;;;4.13;3.80;;;25.20;94.40;;;;;;5103298;28;20459;-70
2021/06/27 07:23:45;;;;;;;3.30;3.10;;;25.30;94.20;;;;;;5113122;28;20616;-70
2021/06/27 07:26:12;;;;;;;3.57;3.20;;;25.40;94.00;;;;;;5113487;28;20449;-70
2021/06/27 07:28:39;;;;;;;3.75;3.45;;;25.50;93.70;;;;;;5113373;28;20450;-69
2021/06/27 07:31:06;;;;;;;3.20;3.00;;;25.60;93.40;;;;;;5095604;28;20228;-69
2021/06/27 07:33:33;;;;;;;6.00;3.50;;;25.70;93.00;;;;;;5093129;28;20459;-70
2021/06/27 07:35:59;;;;;;;3.20;3.00;;;25.70;92.90;;;;;;5107887;28;20780;-70
2021/06/27 07:38:26;;;;;;;3.57;3.27;;;25.80;92.60;;;;;;5100773;28;20199;-70
2021/06/27 07:40:54;;;;;;;3.73;3.43;;;25.90;92.40;;;;;;5092600;28;20461;-70
2021/06/27 07:43:21;;;;;;;3.10;2.63;;;26.00;92.20;;;;;;5093079;28;20826;-69
2021/06/27 07:45:48;;;;;;;3.80;2.90;;;26.10;92.00;;;;;;5099654;28;21033;-69
2021/06/27 07:48:14;;;;;;;3.90;3.60;;;26.20;91.70;;;;;;5113664;28;20444;-69
2021/06/27 07:50:42;;;;;;;4.00;3.70;;;26.30;91.40;;;;;;5098406;28;20959;-69
2021/06/27 07:53:08;;;;;;;3.53;3.13;;;26.40;91.30;;;;;;5092602;28;20457;-70
2021/06/27 07:55:36;;;;;;;3.40;3.10;;;26.40;91.30;;;;;;5092735;28;20476;-69
2021/06/27 07:58:05;;;;;;;2.73;2.43;;;26.40;91.10;;;;;;5092624;28;20489;-70
2021/06/27 08:00:32;;;;;;;4.40;4.00;;;26.50;91.00;;;;;;5092645;28;20926;-69
2021/06/27 08:02:59;;;;;;;3.03;2.83;;;26.60;90.80;;;;;;5092813;28;20457;-69
2021/06/27 08:05:26;;;;;;;3.17;2.97;;;26.70;90.70;;;;;;5096353;28;20458;-70
2021/06/27 08:07:54;;;;;;;3.90;3.60;;;26.70;90.50;;;;;;5092330;28;20782;-71
2021/06/27 08:10:21;;;;;;;4.03;3.73;;;26.80;90.20;;;;;;5092222;28;20209;-70
2021/06/27 08:12:48;;;;;;;3.40;3.10;;;26.80;90.20;;;;;;5091870;28;21055;-70
2021/06/27 08:15:19;;;;;;;3.10;2.90;;;26.80;90.20;;;;;;5091896;28;20479;-70
2021/06/27 08:17:47;;;;;;;4.60;3.50;;;26.80;90.20;;;;;;5092252;28;20760;-70
2021/06/27 08:20:14;;;;;;;3.53;3.22;;;26.80;90.20;;;;;;5088791;28;20459;-69
2021/06/27 08:22:41;;;;;;;3.20;2.90;;;26.70;90.20;;;;;;5095831;28;20641;-69
2021/06/27 08:25:08;;;;;;;3.23;2.93;;;26.80;90.20;;;;;;5099586;27;20460;-69
2021/06/27 08:27:35;;;;;;;3.60;3.30;;;26.80;90.10;;;;;;5110225;28;20447;-69
2021/06/27 08:30:04;;;;;;;6.07;4.03;;;26.80;90.20;;;;;;5105081;28;20464;-69
2021/06/27 08:32:32;;;;;;;3.87;3.57;;;26.80;90.00;;;;;;5107270;28;20521;-69
2021/06/27 08:34:59;;;;;;;3.60;3.30;;;26.80;90.10;;;;;;5092147;28;20447;-69
2021/06/27 08:37:25;;;;;;;4.33;4.03;;;26.80;90.20;;;;;;5093592;28;20502;-69
2021/06/27 08:39:52;;;;;;;5.40;4.07;;;26.80;90.20;;;;;;5109398;28;20456;-69
2021/06/27 08:42:20;;;;;;;4.57;4.18;;;26.60;90.20;;;;;;5108421;28;20466;-69
2021/06/27 08:44:48;;;;;;;4.07;3.77;;;26.80;90.40;;;;;;5105050;28;20192;-69
2021/06/27 08:47:16;;;;;;;4.07;3.77;;;26.80;90.20;;;;;;5092080;28;20442;-69
2021/06/27 08:49:47;;;;;;;4.00;3.70;;;26.80;90.10;;;;;;5097119;28;20472;-69
2021/06/27 08:52:16;;;;;;;4.30;3.90;;;26.80;90.20;;;;;;5111615;28;20807;-70
2021/06/27 08:54:43;;;;;;;4.30;4.00;;;26.80;90.10;;;;;;5111424;28;20481;-69
2021/06/27 08:57:11;;;;;;;4.13;3.73;;;26.80;90.20;;;;;;5109418;28;20488;-70
2021/06/27 08:59:37;;;;;;;5.17;4.10;;;26.90;90.20;;;;;;5111034;28;20495;-70
2021/06/27 09:02:04;;;;;;;3.95;3.63;;;26.80;90.30;;;;;;5107528;28;20528;-70
2021/06/27 09:04:33;;;;;;;3.60;3.40;;;26.80;90.30;;;;;;5098471;28;20200;-70
2021/06/27 09:07:30;;;;;;;4.40;4.00;;;26.80;90.30;;;;;;5108053;28;21015;-71
2021/06/27 09:10:02;;;;;;;4.23;3.90;;;26.70;90.30;;;;;;5100109;28;20448;-71
2021/06/27 09:12:45;;;;;;;4.37;4.03;;;26.70;90.30;;;;;;5102227;28;20456;-71
2021/06/27 09:15:12;;;;;;;4.40;4.10;;;26.60;90.70;;;;;;5096088;28;20844;-72
2021/06/27 09:17:42;;;;;;;3.47;3.17;;;26.60;90.70;;;;;;5091145;28;20907;-70
2021/06/27 09:20:10;;;;;;;4.07;3.77;;;26.60;90.70;;;;;;5094614;28;20469;-71
2021/06/27 09:22:40;;;;;;;6.27;5.20;;;26.60;90.80;;;;;;5110912;28;20460;-70
2021/06/27 09:25:22;;;;;;;4.57;4.20;;;26.50;90.90;;;;;;5110649;28;20785;-71
2021/06/27 09:28:00;;;;;;;4.30;4.00;;;26.50;91.00;;;;;;5101014;28;20456;-69
2021/06/27 09:30:27;;;;;;;4.70;4.30;;;26.50;91.00;;;;;;5100635;28;20441;-69
2021/06/27 09:32:59;;;;;;;4.10;3.80;;;26.50;91.00;;;;;;5096380;28;20468;-70
2021/06/27 09:35:52;;;;;;;5.07;4.67;;;26.60;90.90;;;;;;5096809;28;20459;-70
2021/06/27 09:38:33;;;;;;;4.40;4.00;;;26.60;90.90;;;;;;5075797;28;20456;-69
2021/06/27 09:41:02;;;;;;;3.77;3.47;;;26.60;91.10;;;;;;5090949;28;20452;-69
2021/06/27 09:43:32;;;;;;;4.57;4.27;;;26.60;91.10;;;;;;5096443;28;20450;-69
2021/06/27 09:46:00;;;;;;;4.40;4.10;;;26.60;90.90;;;;;;5097151;28;20461;-70
2021/06/27 09:48:28;;;;;;;4.10;3.70;;;26.60;91.00;;;;;;5095045;28;20518;-69
2021/06/27 09:50:58;;;;;;;5.20;4.67;;;26.60;91.00;;;;;;5090976;28;20441;-70
2021/06/27 09:53:37;;;;;;;4.37;3.97;;;26.70;90.90;;;;;;5096357;28;20469;-70
2021/06/27 09:56:06;;;;;;;4.10;3.80;;;26.70;90.70;;;;;;5108009;28;20483;-69
2021/06/27 09:58:34;;;;;;;4.17;3.87;;;26.80;90.60;;;;;;5099888;28;20488;-69
2021/06/27 10:01:01;;;;;;;5.00;4.60;;;26.90;90.60;;;;;;5092130;28;20473;-71
2021/06/27 10:03:29;;;;;;;4.20;3.90;;;26.90;90.50;;;;;;5091508;28;20443;-71
2021/06/27 10:06:05;;;;;;;6.50;4.25;;;27.00;90.40;;;;;;5109419;28;20551;-70
2021/06/27 10:08:32;;;;;;;4.20;3.90;;;27.00;89.80;;;;;;5102428;27;20208;-69
2021/06/27 10:11:16;;;;;;;3.67;3.20;;;27.00;89.30;;;;;;5095807;28;20444;-70
2021/06/27 10:13:46;;;;;;;5.07;3.50;;;27.00;89.20;;;;;;5105387;28;20560;-70
2021/06/27 10:16:16;;;;;;;5.67;4.40;;;27.00;89.10;;;;;;5114597;28;20967;-70
2021/06/27 10:18:43;;;;;;;4.40;4.10;;;27.00;88.70;;;;;;5113818;28;20457;-69
2021/06/27 10:21:11;;;;;;;4.83;4.53;;;27.00;88.80;;;;;;5113077;28;21204;-70
2021/06/27 10:23:38;;;;;;;4.43;4.13;;;27.00;88.90;;;;;;5106511;28;20458;-70
2021/06/27 10:26:05;;;;;;;4.60;4.30;;;27.00;88.50;;;;;;5114795;28;20773;-69
2021/06/27 10:28:35;;;;;;;4.33;3.93;;;27.00;88.40;;;;;;5101626;28;20654;-70
2021/06/27 10:31:02;;;;;;;4.30;4.00;;;27.00;89.20;;;;;;5103420;28;20458;-70
2021/06/27 10:33:31;;;;;;;4.83;4.43;;;27.00;89.10;;;;;;5097523;28;20444;-69
2021/06/27 10:35:59;;;;;;;4.80;4.20;;;27.00;89.10;;;;;;5097303;28;20959;-69
2021/06/27 10:38:30;;;;;;;4.00;3.60;;;27.00;89.10;;;;;;5098791;28;20459;-69
2021/06/27 10:40:58;;;;;;;3.97;3.67;;;26.80;88.90;;;;;;5098490;28;20459;-69
2021/06/27 10:43:26;;;;;;;3.73;3.53;;;27.10;89.30;;;;;;5100154;28;20188;-69
2021/06/27 10:46:01;;;;;;;3.60;3.40;;;27.00;88.70;;;;;;5099394;28;20463;-69
2021/06/27 10:48:40;;;;;;;4.30;4.00;;;27.00;88.90;;;;;;5102781;28;20847;-70
2021/06/27 10:51:10;;;;;;;4.67;4.37;;;27.00;88.60;;;;;;5104432;28;20457;-69
2021/06/27 10:54:12;;;;;;;4.35;4.05;;;27.40;88.20;;;;;;5105448;28;20450;-70
2021/06/27 10:57:01;;;;;;;3.93;3.63;;;27.00;88.80;;;;;;5093732;28;20221;-70
2021/06/27 10:59:56;;;;;;;4.07;3.77;;;27.00;88.90;;;;;;5099545;28;20458;-70
2021/06/27 11:02:38;;;;;;;4.60;4.20;;;27.00;89.20;;;;;;5100498;28;20458;-69
2021/06/27 11:05:46;;;;;;;4.67;4.30;;;27.00;88.60;;;;;;5100780;28;20945;-69
2021/06/27 11:08:15;;;;;;;4.30;3.90;;;27.00;88.30;;;;;;5099002;28;20457;-70
2021/06/27 11:10:42;;;;;;;4.97;4.57;;;27.00;88.50;;;;;;5092909;28;20467;-69
2021/06/27 11:13:13;;;;;;;4.00;3.70;;;27.00;89.00;;;;;;5103208;28;20876;-69
2021/06/27 11:16:01;;;;;;;4.50;4.20;;;27.00;88.40;;;;;;5097198;28;20211;-70
2021/06/27 11:18:32;;;;;;;3.73;3.50;;;27.00;88.00;;;;;;5100888;28;20450;-69
2021/06/27 11:21:08;;;;;;;4.33;3.80;;;27.00;87.50;;;;;;5110035;28;20442;-70
2021/06/27 11:23:55;;;;;;;5.07;4.67;;;27.00;87.40;;;;;;5113114;28;20460;-69
2021/06/27 11:26:48;;;;;;;4.07;3.77;;;27.00;87.00;;;;;;5109763;28;20457;-70
2021/06/27 11:29:47;;;;;;;4.90;4.50;;;27.00;86.80;;;;;;5098479;28;20450;-69
2021/06/27 11:32:50;;;;;;;4.00;3.70;;;27.00;86.40;;;;;;5099060;28;20557;-69
2021/06/27 11:35:48;;;;;;;4.17;3.63;;;27.10;86.80;;;;;;5104745;28;20477;-70
2021/06/27 11:38:51;;;;;;;3.65;3.35;;;27.00;85.70;;;;;;5093711;28;20474;-71
2021/06/27 11:41:36;;;;;;;5.17;4.67;;;27.10;86.70;;;;;;5111533;28;20818;-70
2021/06/27 11:44:05;;;;;;;4.57;4.28;;;27.10;85.80;;;;;;5106978;28;20450;-70
2021/06/27 11:46:35;;;;;;;5.03;4.63;;;27.10;86.40;;;;;;5100638;28;20211;-71
2021/06/27 11:49:05;;;;;;;3.83;3.53;;;27.10;86.70;;;;;;5096802;28;21208;-72
2021/06/27 11:51:40;;;;;;;3.90;3.60;;;27.10;86.50;;;;;;5100856;28;20794;-72
2021/06/27 11:54:08;;;;;;;4.18;3.80;;;27.00;86.40;;;;;;5112673;28;20453;-70
2021/06/27 11:56:58;;;;;;;4.50;4.20;;;27.10;86.20;;;;;;5101151;28;20215;-69
2021/06/27 11:59:26;;;;;;;4.13;3.83;;;27.00;86.00;;;;;;5075816;28;20468;-70
2021/06/27 12:02:16;;;;;;;5.27;4.67;;;27.10;86.40;;;;;;5071607;28;20468;-70
2021/06/27 12:04:46;;;;;;;5.30;4.40;;;27.00;86.30;;;;;;5076837;28;20449;-70
2021/06/27 12:07:32;;;;;;;5.43;4.73;;;27.00;86.10;;;;;;5075126;28;20462;-70
2021/06/27 12:10:01;;;;;;;4.03;3.72;;;26.90;86.00;;;;;;5076655;28;20459;-69
2021/06/27 12:12:38;;;;;;;4.60;4.30;;;27.10;98.90;;;;;;5078476;28;20644;-69
2021/06/27 12:15:07;;;;;;;4.27;3.97;;;27.00;86.00;;;;;;5071931;28;20437;-69
2021/06/27 12:17:34;;;;;;;4.07;3.77;;;27.00;86.20;;;;;;5079884;28;20482;-68
2021/06/27 12:20:01;;;;;;;4.30;3.90;;;27.00;86.00;;;;;;5083075;28;20455;-70
2021/06/27 12:22:28;;;;;;;4.37;4.07;;;27.00;85.70;;;;;;5090782;28;20962;-70
2021/06/27 12:25:03;;;;;;;4.47;4.07;;;27.00;86.00;;;;;;5078863;28;20950;-70
2021/06/27 12:27:30;;;;;;;4.63;4.30;;;27.00;85.80;;;;;;5079251;28;20792;-70
2021/06/27 12:29:58;;;;;;;3.80;3.50;;;27.00;85.80;;;;;;5088158;28;20442;-70
2021/06/27 12:32:24;;;;;;;4.30;4.00;;;27.00;85.10;;;;;;5072348;28;20931;-70
2021/06/27 12:34:51;;;;;;;4.27;3.97;;;27.00;85.40;;;;;;5083807;28;20448;-69
2021/06/27 12:37:18;;;;;;;4.28;3.97;;;27.00;85.10;;;;;;5075838;28;20525;-70
2021/06/27 12:39:45;;;;;;;4.60;4.30;;;26.90;84.40;;;;;;5077909;28;20550;-70
2021/06/27 12:42:15;;;;;;;5.07;4.67;;;27.00;84.50;;;;;;5082562;28;20456;-67
2021/06/27 12:44:42;;;;;;;4.03;3.72;;;27.00;84.50;;;;;;5086992;28;20570;-68
2021/06/27 12:47:10;;;;;;;3.93;3.67;;;27.00;84.30;;;;;;5084726;28;20223;-69
2021/06/27 12:49:37;;;;;;;4.80;4.37;;;27.00;84.20;;;;;;5080263;28;20842;-69
2021/06/27 12:52:06;;;;;;;4.60;4.20;;;27.00;84.70;;;;;;5089071;28;20974;-69
2021/06/27 12:54:33;;;;;;;4.00;3.70;;;27.00;84.60;;;;;;5072594;28;20463;-69
2021/06/27 12:57:04;;;;;;;4.70;3.93;;;27.00;84.70;;;;;;5083874;28;20833;-68
2021/06/27 12:59:50;;;;;;;6.20;4.93;;;27.00;84.00;;;;;;5102911;28;20545;-71